Time;durP1;ratioP1;P1;durP2;ratioP2;P2;SDS_P1;SDS_P2;PMS_P1;PMS_P2;Temp;Humidity;BMP_temperature;BMP_pressure;BME280_temperature;BME280_humidity;BME280_pressure;Samples;Min_cycle;Max_cycle;Signal;HPM_P1;HPM_P2
2022/05/06 00:03:39;;;;;;;8.02;4.40;;;;;;;11.67;86.58;100429.78;12195489;19;20038;-82
2022/05/06 00:07:41;;;;;;;11.57;5.25;;;;;;;11.59;87.24;100426.31;12187539;19;20014;-82
2022/05/06 00:11:43;;;;;;;11.82;4.35;;;;;;;11.54;86.88;100425.34;12201591;19;20591;-83
2022/05/06 00:15:44;;;;;;;10.45;3.95;;;;;;;11.49;87.58;100425.25;12202868;19;20500;-84
2022/05/06 00:19:46;;;;;;;8.77;3.97;;;;;;;11.45;88.20;100424.03;12186281;19;20006;-83
2022/05/06 00:23:48;;;;;;;10.32;3.47;;;;;;;11.39;88.53;100425.84;12204088;19;20402;-82
2022/05/06 00:27:50;;;;;;;10.10;3.75;;;;;;;11.31;89.23;100438.09;12202761;19;20014;-82
2022/05/06 00:31:52;;;;;;;8.65;4.25;;;;;;;11.24;88.67;100429.06;12179396;19;20014;-83
2022/05/06 00:35:55;;;;;;;13.40;5.83;;;;;;;11.18;89.48;100430.88;12202427;19;20082;-83
2022/05/06 00:40:00;;;;;;;20.17;7.97;;;;;;;11.11;89.14;100432.91;12176636;19;20560;-82
2022/05/06 00:44:06;;;;;;;11.30;5.20;;;;;;;11.06;90.23;100438.28;12193500;19;20013;-82
2022/05/06 00:48:08;;;;;;;20.70;8.13;;;;;;;10.96;90.45;100440.81;12200575;19;20014;-82
2022/05/06 00:52:10;;;;;;;24.70;11.75;;;;;;;10.89;89.91;100443.69;12168111;19;20035;-82
2022/05/06 00:56:12;;;;;;;13.60;6.00;;;;;;;10.84;87.78;100451.81;12193641;19;20022;-82
2022/05/06 01:00:17;;;;;;;12.90;6.10;;;;;;;10.83;87.50;100444.63;12201289;19;20121;-83
2022/05/06 01:04:19;;;;;;;30.33;16.55;;;;;;;10.78;86.45;100454.66;12178822;19;20038;-81
2022/05/06 01:08:22;;;;;;;;;;;;;;;10.72;87.58;100449.00;12194212;19;20032;-82
2022/05/06 01:12:25;;;;;;;10.73;5.47;;;;;;;10.67;86.08;100437.00;12187579;19;19935;-81
2022/05/06 01:16:35;;;;;;;10.85;5.85;;;;;;;10.63;86.49;100433.06;12174145;19;20451;-82
2022/05/06 01:20:46;;;;;;;10.63;4.68;;;;;;;10.58;86.43;100439.25;12202793;19;20034;-81
2022/05/06 01:24:48;;;;;;;9.48;4.45;;;;;;;10.56;86.06;100443.31;12192717;19;20014;-81
2022/05/06 01:28:50;;;;;;;6.75;4.28;;;;;;;10.52;86.75;100445.72;12173217;19;20015;-82
2022/05/06 01:32:52;;;;;;;7.67;3.53;;;;;;;10.49;85.70;100443.41;12190197;19;20082;-81
2022/05/06 01:36:55;;;;;;;9.75;3.80;;;;;;;10.52;85.49;100447.63;12178917;19;20018;-82
2022/05/06 01:41:00;;;;;;;6.78;4.10;;;;;;;10.47;85.56;100440.09;12193227;19;20125;-81
2022/05/06 01:45:10;;;;;;;15.82;4.15;;;;;;;10.40;84.72;100448.41;12199571;19;20011;-81
2022/05/06 01:49:17;;;;;;;11.52;3.92;;;;;;;10.38;84.71;100442.31;12173562;19;20039;-82
2022/05/06 01:53:20;;;;;;;7.10;3.78;;;;;;;10.36;84.35;100443.63;12207886;19;20006;-82
2022/05/06 01:57:25;;;;;;;9.27;3.75;;;;;;;10.38;82.97;100446.97;12205271;19;20013;-82
2022/05/06 02:01:29;;;;;;;8.20;3.93;;;;;;;10.41;84.21;100447.38;12181175;19;20413;-82
2022/05/06 02:05:31;;;;;;;10.23;4.22;;;;;;;10.33;84.12;100446.84;12209538;19;20078;-81
2022/05/06 02:09:33;;;;;;;9.43;3.25;;;;;;;10.32;83.64;100451.53;12206475;19;20027;-82
2022/05/06 02:13:39;;;;;;;8.38;3.17;;;;;;;10.30;83.32;100448.16;12182245;19;20017;-82
2022/05/06 02:17:55;;;;;;;6.43;3.53;;;;;;;10.29;83.33;100440.94;12206212;19;20036;-82
2022/05/06 02:22:05;;;;;;;8.63;3.55;;;;;;;10.27;83.75;100443.09;12189091;19;20043;-80
2022/05/06 02:26:27;;;;;;;8.98;3.67;;;;;;;10.20;84.53;100445.91;12207109;19;20138;-83
2022/05/06 02:34:56;;;;;;;;;;;;;;;10.13;84.29;100455.31;12190386;19;20720;-83
2022/05/06 02:38:58;;;;;;;9.48;3.38;;;;;;;10.10;84.26;100451.13;12207487;19;19907;-82
2022/05/06 02:43:02;;;;;;;10.60;3.63;;;;;;;10.06;84.73;100446.31;12180812;19;20006;-81
2022/05/06 02:47:06;;;;;;;6.43;2.90;;;;;;;9.99;85.38;100444.50;12204115;19;20553;-82
2022/05/06 02:51:08;;;;;;;6.35;2.85;;;;;;;9.94;85.09;100441.59;12192604;19;20014;-81
2022/05/06 02:55:12;;;;;;;6.32;3.28;;;;;;;9.94;84.63;100438.81;12182953;19;20015;-81
2022/05/06 02:59:15;;;;;;;;;;;;;;;9.94;85.12;100444.34;12207114;19;20011;-81
2022/05/06 03:03:17;;;;;;;5.45;2.78;;;;;;;9.89;85.35;100446.94;12203189;19;19915;-83
2022/05/06 03:07:22;;;;;;;12.15;3.00;;;;;;;9.90;84.23;100445.84;12178485;19;20082;-82
2022/05/06 03:11:26;;;;;;;7.25;2.85;;;;;;;9.90;83.38;100450.50;12200806;19;20416;-82
2022/05/06 03:15:35;;;;;;;11.50;3.25;;;;;;;9.93;83.01;100450.88;12208751;19;20006;-81
2022/05/06 03:19:47;;;;;;;8.25;2.95;;;;;;;9.86;82.66;100458.41;12181332;19;20031;-81
2022/05/06 03:23:53;;;;;;;9.15;3.10;;;;;;;9.83;83.38;100456.09;12205665;19;20028;-81
2022/05/06 03:28:01;;;;;;;5.20;2.78;;;;;;;9.73;83.79;100451.13;12170686;19;20035;-81
2022/05/06 03:32:04;;;;;;;7.57;3.33;;;;;;;9.70;83.69;100451.59;12201689;19;20010;-82
2022/05/06 03:36:06;;;;;;;5.88;3.45;;;;;;;9.66;83.09;100449.50;12193765;19;20007;-83
2022/05/06 03:40:15;;;;;;;7.90;2.88;;;;;;;9.64;83.12;100454.41;12182921;19;20092;-83
2022/05/06 03:44:18;;;;;;;4.00;2.33;;;;;;;9.61;83.27;100446.59;12190182;19;20015;-83
2022/05/06 03:48:25;;;;;;;5.32;3.33;;;;;;;9.63;82.78;100449.97;12204587;19;20723;-83
2022/05/06 03:52:33;;;;;;;6.38;2.92;;;;;;;9.62;82.51;100449.13;12181398;19;20025;-83
2022/05/06 03:56:35;;;;;;;6.35;2.72;;;;;;;9.62;82.43;100459.31;12202359;19;20006;-83
2022/05/06 04:00:40;;;;;;;6.53;3.00;;;;;;;9.65;81.98;100458.84;12202995;19;20006;-82
2022/05/06 04:04:44;;;;;;;9.90;3.33;;;;;;;9.65;81.10;100464.34;12177996;19;20014;-82
2022/05/06 04:08:49;;;;;;;7.90;3.13;;;;;;;9.73;81.02;100464.06;12197891;19;20011;-82
2022/05/06 04:12:52;;;;;;;6.27;2.77;;;;;;;9.73;80.70;100472.31;12203055;19;20031;-83
2022/05/06 04:17:07;;;;;;;7.85;2.95;;;;;;;9.72;81.07;100468.69;12176543;19;20224;-83
2022/05/06 04:25:32;;;;;;;3.85;2.55;;;;;;;9.75;80.31;100461.91;12180622;19;20010;-82
2022/05/06 04:29:34;;;;;;;6.15;2.75;;;;;;;9.77;80.56;100473.53;12197499;19;20011;-83
2022/05/06 04:33:39;;;;;;;10.52;3.30;;;;;;;9.75;80.68;100482.00;12198226;19;19999;-82
2022/05/06 04:37:43;;;;;;;8.25;3.25;;;;;;;9.74;80.88;100485.84;12180569;19;20018;-81
2022/05/06 04:41:48;;;;;;;7.13;2.92;;;;;;;9.72;80.67;100489.88;12203893;19;20049;-84
2022/05/06 04:45:57;;;;;;;5.20;3.03;;;;;;;9.75;80.60;100492.19;12181702;19;20054;-82
2022/05/06 04:50:01;;;;;;;7.18;3.03;;;;;;;9.75;80.57;100497.69;12202594;19;20010;-81
2022/05/06 04:54:03;;;;;;;8.73;3.25;;;;;;;9.73;80.49;100499.84;12197528;19;20614;-82
2022/05/06 04:58:06;;;;;;;7.20;3.27;;;;;;;9.74;81.06;100505.09;12168163;19;20338;-81
2022/05/06 05:02:08;;;;;;;5.93;3.05;;;;;;;9.73;80.91;100502.59;12198133;19;20260;-81
2022/05/06 05:06:11;;;;;;;7.30;3.50;;;;;;;9.74;80.70;100513.34;12201978;19;20018;-83
2022/05/06 05:10:13;;;;;;;5.50;3.45;;;;;;;9.77;81.04;100520.31;12172072;19;20035;-81
2022/05/06 05:14:19;;;;;;;5.18;2.75;;;;;;;9.75;80.40;100519.69;12199761;19;20092;-79
2022/05/06 05:18:22;;;;;;;7.75;3.33;;;;;;;9.80;80.65;100522.63;12203818;19;20010;-81
2022/05/06 05:22:24;;;;;;;7.40;3.38;;;;;;;9.88;80.60;100524.25;12172663;19;20010;-82
2022/05/06 05:26:28;;;;;;;4.93;3.00;;;;;;;9.93;80.30;100529.91;12202468;19;20540;-80
2022/05/06 05:30:30;;;;;;;6.47;3.60;;;;;;;9.97;79.87;100529.22;12202956;19;20015;-81
2022/05/06 05:34:35;;;;;;;7.95;2.85;;;;;;;10.03;79.47;100520.03;12193516;19;20793;-81
2022/05/06 05:38:45;;;;;;;10.57;3.42;;;;;;;10.14;79.67;100532.22;12204532;19;20011;-81
2022/05/06 05:42:47;;;;;;;7.60;3.10;;;;;;;10.23;79.17;100527.22;12204286;19;20006;-82
2022/05/06 05:51:13;;;;;;;8.75;3.10;;;;;;;10.44;78.95;100525.94;12172889;19;20014;-81
2022/05/06 05:55:24;;;;;;;6.47;3.22;;;;;;;10.56;78.61;100537.88;12173855;19;20011;-79
2022/05/06 05:59:26;;;;;;;6.30;3.15;;;;;;;10.72;78.08;100534.47;12215562;19;20007;-80
2022/05/06 06:03:32;;;;;;;7.20;3.20;;;;;;;10.89;77.87;100540.19;12215316;19;20017;-80
2022/05/06 06:07:37;;;;;;;6.28;2.90;;;;;;;11.06;77.70;100540.34;12197018;19;20017;-80
2022/05/06 06:11:40;;;;;;;11.95;4.70;;;;;;;11.21;77.58;100544.56;12221278;19;20007;-82
2022/05/06 06:15:44;;;;;;;7.53;3.55;;;;;;;11.36;77.57;100553.25;12217499;19;20014;-80
2022/05/06 06:19:48;;;;;;;6.30;3.20;;;;;;;11.52;77.59;100543.44;12197003;19;20003;-80
2022/05/06 06:23:50;;;;;;;7.30;3.83;;;;;;;11.59;77.52;100547.75;12221872;19;20038;-81
2022/05/06 06:27:52;;;;;;;8.32;3.95;;;;;;;11.68;78.09;100553.78;12210255;19;20014;-80
2022/05/06 06:31:54;;;;;;;7.93;3.78;;;;;;;11.74;77.54;100561.09;12223480;19;20014;-80
2022/05/06 06:35:56;;;;;;;10.83;4.17;;;;;;;11.85;76.91;100563.06;12226790;19;20014;-79
2022/05/06 06:39:59;;;;;;;5.32;3.15;;;;;;;11.95;76.60;100556.91;12200519;19;20014;-80
2022/05/06 06:44:04;;;;;;;7.35;3.65;;;;;;;12.04;75.38;100562.94;12217227;19;20366;-80
2022/05/06 06:48:25;;;;;;;5.15;3.22;;;;;;;12.19;74.76;100566.03;12220990;19;20038;-80
2022/05/06 06:52:35;;;;;;;7.80;3.40;;;;;;;12.44;74.32;100570.47;12184863;19;20018;-80
2022/05/06 06:56:37;;;;;;;9.45;3.45;;;;;;;12.63;73.96;100566.41;12204875;19;20035;-80
2022/05/06 07:00:38;;;;;;;7.83;3.63;;;;;;;12.75;73.29;100567.22;12216839;19;20010;-80
2022/05/06 07:04:40;;;;;;;8.20;3.77;;;;;;;13.05;72.09;100557.84;12183428;19;20027;-80
2022/05/06 07:13:02;;;;;;;9.15;3.33;;;;;;;13.46;71.57;100564.16;12191321;19;20027;-80
2022/05/06 07:17:05;;;;;;;5.00;2.75;;;;;;;13.79;70.79;100559.69;12203461;19;20011;-79
2022/05/06 07:21:07;;;;;;;;;;;;;;;13.98;69.84;100551.94;12215266;19;20027;-80
2022/05/06 07:25:08;;;;;;;5.43;2.58;;;;;;;14.24;69.55;100559.53;12186932;19;19994;-80
2022/05/06 07:29:10;;;;;;;9.70;2.90;;;;;;;14.52;68.51;100558.56;12208121;19;20010;-79
2022/05/06 07:33:12;;;;;;;4.60;2.45;;;;;;;14.77;68.10;100557.19;12206993;19;20098;-80
2022/05/06 07:37:14;;;;;;;7.07;3.15;;;;;;;14.98;66.34;100563.81;12183787;19;20004;-80
2022/05/06 07:41:15;;;;;;;6.50;2.92;;;;;;;15.19;65.99;100556.53;12211723;19;20052;-79
2022/05/06 07:45:17;;;;;;;6.55;3.00;;;;;;;15.43;64.55;100563.44;12200202;19;20018;-79
2022/05/06 07:49:19;;;;;;;6.47;2.43;;;;;;;15.61;62.74;100566.91;12180683;19;20035;-81
2022/05/06 07:53:22;;;;;;;13.30;4.40;;;;;;;15.84;61.08;100552.69;12204001;19;20007;-80
2022/05/06 07:57:24;;;;;;;3.63;2.13;;;;;;;16.21;61.43;100560.19;12204616;19;20357;-79
2022/05/06 08:05:47;;;;;;;5.13;2.22;;;;;;;16.60;59.20;100557.03;12202135;19;20014;-80
2022/05/06 08:09:49;;;;;;;11.52;2.50;;;;;;;16.79;58.50;100566.59;12204949;19;20014;-80
2022/05/06 08:13:52;;;;;;;3.40;2.05;;;;;;;16.91;57.43;100563.56;12182287;19;20022;-80
2022/05/06 08:17:54;;;;;;;5.10;2.20;;;;;;;17.15;57.32;100563.91;12201305;19;20023;-80
2022/05/06 08:21:56;;;;;;;6.45;2.17;;;;;;;17.45;56.75;100559.50;12192122;19;20014;-80
2022/05/06 08:25:57;;;;;;;4.00;1.75;;;;;;;17.54;53.58;100568.97;12202340;19;20003;-81
2022/05/06 08:29:59;;;;;;;5.95;2.05;;;;;;;17.62;53.49;100568.44;12200915;19;20099;-80
2022/05/06 08:34:00;;;;;;;12.05;2.22;;;;;;;17.74;52.27;100576.50;12186543;19;20014;-80
2022/05/06 08:38:02;;;;;;;5.18;1.95;;;;;;;17.80;50.79;100566.22;12194383;19;20510;-80
2022/05/06 08:42:08;;;;;;;6.97;2.20;;;;;;;17.97;49.83;100552.84;12191344;19;20002;-80
2022/05/06 08:55:14;;;;;;;5.63;2.55;;;;;;;18.38;47.54;100561.09;12137065;19;20027;-80
2022/05/06 08:59:16;;;;;;;4.90;1.52;;;;;;;18.64;47.83;100551.50;12196388;19;20022;-79
2022/05/06 09:03:21;;;;;;;6.80;1.90;;;;;;;18.75;46.48;100559.88;12202553;19;20023;-80
2022/05/06 09:07:33;;;;;;;7.65;1.73;;;;;;;18.98;46.64;100563.97;12181908;19;20078;-80
2022/05/06 09:16:41;;;;;;;5.32;1.83;;;;;;;19.17;43.52;100552.94;12185780;19;20360;-80
2022/05/06 09:20:51;;;;;;;5.57;1.90;;;;;;;19.33;42.88;100557.31;12186702;19;20372;-80
2022/05/06 09:25:01;;;;;;;2.10;1.27;;;;;;;19.67;42.13;100559.31;12177081;19;20476;-79
2022/05/06 09:29:25;;;;;;;5.15;1.67;;;;;;;19.34;41.72;100550.59;12197377;19;20010;-79
2022/05/06 09:33:35;;;;;;;4.00;1.55;;;;;;;19.48;40.84;100543.25;12195346;19;20305;-80
2022/05/06 09:38:06;;;;;;;4.75;1.40;;;;;;;19.66;39.40;100547.31;12180272;19;20010;-81
2022/05/06 09:42:24;;;;;;;3.72;1.42;;;;;;;19.59;38.86;100553.19;12195837;19;20011;-80
2022/05/06 09:46:26;;;;;;;3.08;1.40;;;;;;;19.86;39.57;100542.66;12177841;19;20046;-80
2022/05/06 09:50:38;;;;;;;3.60;1.75;;;;;;;20.12;38.20;100537.66;12196243;19;20011;-80
2022/05/06 09:54:47;;;;;;;4.03;1.50;;;;;;;20.39;38.11;100548.25;12191528;19;20010;-81
2022/05/06 09:58:53;;;;;;;2.80;1.30;;;;;;;20.32;37.54;100543.03;12181403;19;20006;-79
2022/05/06 10:02:56;;;;;;;4.25;1.42;;;;;;;20.29;37.88;100549.22;12198037;19;20014;-80
2022/05/06 10:07:07;;;;;;;4.50;1.38;;;;;;;20.57;38.12;100549.47;12173586;19;20007;-80
2022/05/06 10:11:30;;;;;;;4.53;1.35;;;;;;;20.85;37.96;100545.75;12200183;19;20002;-80
2022/05/06 10:15:34;;;;;;;4.28;1.42;;;;;;;20.78;38.14;100544.44;12242347;19;20579;-79
2022/05/06 10:20:05;;;;;;;3.70;1.45;;;;;;;20.79;36.17;100543.31;12193099;19;20007;-80
2022/05/06 10:24:36;;;;;;;5.72;1.63;;;;;;;20.88;36.94;100531.16;12218020;19;20074;-80
2022/05/06 10:32:59;;;;;;;4.75;1.50;;;;;;;21.44;36.58;100535.09;12216699;19;20010;-81
2022/05/06 10:37:13;;;;;;;9.07;1.33;;;;;;;21.36;35.56;100531.03;12188928;19;20074;-80
2022/05/06 10:41:22;;;;;;;4.78;1.67;;;;;;;21.28;35.18;100528.88;12216184;19;20099;-80
2022/05/06 10:45:26;;;;;;;4.40;1.85;;;;;;;21.14;35.61;100530.75;12219416;19;20015;-80
2022/05/06 10:49:34;;;;;;;2.50;1.27;;;;;;;21.48;35.22;100529.72;12183825;19;20100;-80
2022/05/06 10:53:37;;;;;;;4.80;1.40;;;;;;;21.59;34.80;100514.38;12213499;19;20762;-80
2022/05/06 10:57:53;;;;;;;3.13;1.55;;;;;;;21.56;35.31;100506.56;12206522;19;20031;-82
2022/05/06 11:02:09;;;;;;;3.20;1.10;;;;;;;21.66;35.68;100502.78;12182444;19;20092;-80
2022/05/06 11:06:19;;;;;;;5.25;1.50;;;;;;;22.09;35.62;100500.56;12211412;19;20015;-81
2022/05/06 11:10:24;;;;;;;2.95;1.10;;;;;;;22.36;35.11;100508.19;12184376;19;20559;-80
2022/05/06 11:14:26;;;;;;;2.28;1.13;;;;;;;22.49;34.79;100500.94;12209429;19;20007;-82
2022/05/06 11:18:40;;;;;;;3.45;1.60;;;;;;;22.52;34.58;100497.50;12202622;19;20480;-81
2022/05/06 11:23:11;;;;;;;3.33;2.10;;;;;;;22.60;33.32;100496.75;12190429;19;20023;-80
2022/05/06 11:27:17;;;;;;;7.15;1.48;;;;;;;22.57;33.66;100494.56;12198834;19;20015;-80
2022/05/06 11:31:23;;;;;;;3.97;1.40;;;;;;;22.65;32.96;100487.38;12176841;19;20003;-80
2022/05/06 11:35:40;;;;;;;7.07;2.22;;;;;;;22.63;33.56;100482.06;12210615;19;20034;-80
2022/05/06 11:39:42;;;;;;;5.32;2.58;;;;;;;22.28;33.85;100487.31;12200499;19;20011;-81
2022/05/06 11:43:45;;;;;;;2.73;1.10;;;;;;;22.38;33.49;100475.03;12185249;19;20014;-82
2022/05/06 11:47:47;;;;;;;2.75;1.40;;;;;;;22.11;34.39;100472.22;12199974;19;20023;-81
2022/05/06 11:51:49;;;;;;;2.13;1.53;;;;;;;23.59;33.96;100471.69;12207139;19;20039;-82
2022/05/06 11:55:54;;;;;;;3.40;1.50;;;;;;;24.46;32.12;100475.78;12182148;19;20010;-81
2022/05/06 11:59:56;;;;;;;2.33;1.40;;;;;;;23.96;30.79;100463.97;12198279;19;20099;-81
2022/05/06 12:04:06;;;;;;;3.25;1.50;;;;;;;23.65;32.19;100459.97;12180366;19;20066;-82
2022/05/06 12:08:09;;;;;;;2.83;1.33;;;;;;;25.15;29.83;100460.97;12204910;19;20002;-81
2022/05/06 12:12:11;;;;;;;2.42;1.63;;;;;;;26.11;29.35;100466.44;12208690;19;20018;-80
2022/05/06 12:16:14;;;;;;;4.00;1.33;;;;;;;26.66;28.73;100456.22;12178683;19;20103;-82
2022/05/06 12:20:41;;;;;;;3.67;1.70;;;;;;;27.16;27.27;100459.03;12213069;19;20013;-81
2022/05/06 12:24:50;;;;;;;8.93;2.05;;;;;;;27.10;27.15;100457.56;12215643;19;20011;-81
2022/05/06 12:28:52;;;;;;;7.40;1.58;;;;;;;26.26;27.56;100454.56;12181883;19;20010;-83
2022/05/06 12:33:03;;;;;;;2.85;1.40;;;;;;;25.44;29.33;100449.00;12215823;19;20007;-81
2022/05/06 12:37:22;;;;;;;1.98;1.30;;;;;;;25.06;29.86;100450.84;12175622;19;20014;-83
2022/05/06 12:41:34;;;;;;;3.88;1.38;;;;;;;26.26;29.68;100445.25;12199046;19;20023;-81
2022/05/06 12:45:37;;;;;;;3.17;1.50;;;;;;;27.47;26.64;100443.56;12204614;19;20021;-81
2022/05/06 12:49:39;;;;;;;2.55;1.50;;;;;;;28.89;26.34;100431.78;12181064;19;20415;-83
2022/05/06 12:53:42;;;;;;;3.08;1.35;;;;;;;29.34;26.87;100440.03;12206188;19;20034;-83
2022/05/06 12:57:45;;;;;;;4.53;1.60;;;;;;;29.00;25.32;100428.09;12208433;19;20023;-84
2022/05/06 13:01:47;;;;;;;2.05;1.40;;;;;;;28.62;25.19;100429.34;12190092;19;20018;-83
2022/05/06 13:05:50;;;;;;;3.95;1.65;;;;;;;27.89;25.80;100430.13;12213373;19;20078;-81
2022/05/06 13:09:53;;;;;;;2.88;1.77;;;;;;;28.64;25.09;100417.63;12209844;19;20007;-86
2022/05/06 13:13:55;;;;;;;6.10;1.73;;;;;;;29.92;24.38;100425.41;12192604;19;20071;-84
2022/05/06 13:17:57;;;;;;;2.75;1.52;;;;;;;31.08;23.06;100410.72;12212610;19;20037;-84
2022/05/06 13:21:59;;;;;;;2.70;1.60;;;;;;;31.12;22.74;100420.16;12191047;19;20035;-84
2022/05/06 13:26:01;;;;;;;3.50;1.63;;;;;;;30.78;21.87;100402.75;12201021;19;20070;-82
2022/05/06 13:30:03;;;;;;;2.35;1.48;;;;;;;30.60;21.74;100415.72;12221549;19;20038;-84
2022/05/06 13:34:05;;;;;;;2.78;1.63;;;;;;;30.65;21.86;100409.75;12213984;19;20065;-85
2022/05/06 13:38:07;;;;;;;4.95;1.80;;;;;;;31.09;22.17;100398.16;12215140;19;20006;-86
2022/05/06 13:42:08;;;;;;;3.38;1.70;;;;;;;31.49;22.46;100385.53;12217408;19;20006;-84
2022/05/06 13:46:11;;;;;;;2.30;1.33;;;;;;;32.35;21.31;100402.09;12196958;19;20006;-85
2022/05/06 13:50:13;;;;;;;3.45;1.80;;;;;;;31.75;19.97;100397.00;12222761;19;20018;-84
2022/05/06 13:54:15;;;;;;;3.60;1.90;;;;;;;32.09;20.04;100385.78;12226503;19;20056;-84
2022/05/06 14:02:37;;;;;;;5.63;1.90;;;;;;;30.78;20.69;100376.31;12228407;19;20038;-82
2022/05/06 14:06:40;;;;;;;5.78;1.77;;;;;;;32.10;20.47;100367.50;12223406;19;20031;-84
2022/05/06 14:10:43;;;;;;;3.85;1.70;;;;;;;32.60;19.31;100367.44;12201157;19;20013;-85
2022/05/06 14:14:45;;;;;;;3.60;1.48;;;;;;;32.73;19.59;100370.91;12221445;19;20038;-84
2022/05/06 14:18:46;;;;;;;2.85;1.63;;;;;;;32.22;19.50;100370.16;12219620;19;20010;-84
2022/05/06 14:22:48;;;;;;;6.65;1.85;;;;;;;31.78;19.64;100362.06;12196372;19;20049;-85
2022/05/06 14:26:50;;;;;;;4.55;1.50;;;;;;;30.85;21.21;100360.25;12214890;19;20021;-86
2022/05/06 14:30:52;;;;;;;5.88;1.70;;;;;;;29.14;21.73;100364.44;12219648;19;20010;-85
2022/05/06 14:35:16;;;;;;;5.20;1.30;;;;;;;27.72;22.88;100365.19;12197752;19;20070;-85
2022/05/06 14:39:17;;;;;;;2.47;1.40;;;;;;;26.50;24.53;100369.22;12216562;19;20498;-83
2022/05/06 14:43:22;;;;;;;2.88;1.33;;;;;;;26.16;24.71;100358.09;12188650;19;20033;-81
2022/05/06 14:47:25;;;;;;;3.55;1.23;;;;;;;25.99;24.95;100356.19;12217982;19;20097;-83
2022/05/06 14:56:14;;;;;;;2.85;1.77;;;;;;;24.94;25.87;100347.19;12186644;19;20018;-85
2022/05/06 15:00:16;;;;;;;3.28;1.45;;;;;;;24.23;27.88;100339.84;12208901;19;20002;-85
2022/05/06 15:04:17;;;;;;;4.78;2.28;;;;;;;23.65;27.99;100336.19;12189443;19;20058;-83
2022/05/06 15:08:21;;;;;;;3.08;1.40;;;;;;;23.79;27.65;100332.44;12220086;19;20028;-82
2022/05/06 15:12:23;;;;;;;4.33;1.40;;;;;;;23.71;28.54;100344.50;12212107;19;20006;-83
2022/05/06 15:16:27;;;;;;;4.20;1.60;;;;;;;23.65;29.01;100341.81;12187700;19;20018;-84
2022/05/06 15:20:28;;;;;;;1.67;1.20;;;;;;;23.65;29.11;100341.00;12215811;19;20006;-84
2022/05/06 15:24:35;;;;;;;3.57;1.47;;;;;;;24.23;28.27;100339.00;12204433;19;20014;-83
2022/05/06 15:29:01;;;;;;;7.25;1.60;;;;;;;24.07;28.48;100342.31;12185638;19;20035;-83
2022/05/06 15:33:03;;;;;;;3.03;1.40;;;;;;;23.79;29.17;100344.53;12200070;19;20010;-83
2022/05/06 15:37:05;;;;;;;2.88;1.38;;;;;;;23.69;29.10;100341.16;12193327;19;20010;-85
2022/05/06 15:41:06;;;;;;;5.90;1.75;;;;;;;23.20;30.36;100346.69;12213504;19;20002;-84
2022/05/06 15:45:10;;;;;;;4.00;1.40;;;;;;;22.64;30.65;100348.09;12218186;19;20014;-83
2022/05/06 15:49:13;;;;;;;4.65;1.40;;;;;;;22.22;31.78;100353.81;12193053;19;20330;-84
2022/05/06 15:53:15;;;;;;;5.60;1.65;;;;;;;21.98;31.22;100354.03;12209600;19;20003;-80
2022/05/06 15:57:17;;;;;;;;;;;;;;;21.55;32.04;100359.09;12202752;19;20011;-79
2022/05/06 16:01:19;;;;;;;2.53;1.35;;;;;;;21.30;31.54;100352.00;12217847;19;20324;-80
2022/05/06 16:05:22;;;;;;;5.47;1.40;;;;;;;21.50;32.12;100333.97;12244179;19;20383;-79
2022/05/06 16:09:26;;;;;;;2.30;1.45;;;;;;;21.74;31.39;100328.16;12243421;19;20024;-81
2022/05/06 16:13:27;;;;;;;2.75;1.15;;;;;;;21.93;31.32;100337.31;12207656;19;20014;-79
2022/05/06 16:17:29;;;;;;;4.93;1.55;;;;;;;22.01;31.31;100339.38;12235615;19;20010;-81
2022/05/06 16:21:31;;;;;;;5.03;2.70;;;;;;;22.04;31.20;100332.28;12213976;19;20011;-81
2022/05/06 16:25:33;;;;;;;4.70;1.40;;;;;;;21.97;31.97;100340.31;12189336;19;20018;-80
2022/05/06 16:29:35;;;;;;;2.88;1.23;;;;;;;21.77;32.34;100333.13;12208157;19;20011;-80
2022/05/06 16:38:08;;;;;;;6.13;1.38;;;;;;;21.33;32.28;100341.00;12182080;19;20081;-80
2022/05/06 16:42:10;;;;;;;2.35;1.20;;;;;;;21.25;32.43;100341.69;12206066;19;20077;-81
2022/05/06 16:46:11;;;;;;;2.55;1.20;;;;;;;21.13;32.69;100332.94;12191813;19;20070;-81
2022/05/06 16:50:13;;;;;;;2.03;1.17;;;;;;;21.11;32.91;100333.25;12208769;19;20018;-80
2022/05/06 16:54:15;;;;;;;3.53;1.17;;;;;;;21.07;33.27;100335.00;12199297;19;20870;-81
2022/05/06 16:58:18;;;;;;;2.08;1.08;;;;;;;21.05;33.25;100330.84;12183635;19;20010;-81
2022/05/06 17:02:22;;;;;;;2.88;1.48;;;;;;;21.05;33.10;100328.03;12204620;19;20014;-80
2022/05/06 17:06:24;;;;;;;3.88;1.20;;;;;;;20.91;33.56;100331.66;12208209;19;20365;-80
2022/05/06 17:10:26;;;;;;;2.60;1.30;;;;;;;20.89;33.78;100347.09;12185875;19;20490;-82
2022/05/06 17:14:28;;;;;;;4.82;1.70;;;;;;;20.85;33.74;100334.81;12199681;19;20527;-79
2022/05/06 17:18:30;;;;;;;7.70;2.85;;;;;;;20.83;34.44;100340.75;12203895;19;20420;-80
2022/05/06 17:22:32;;;;;;;3.83;1.25;;;;;;;20.60;34.57;100341.69;12192995;19;20007;-80
2022/05/06 17:26:34;;;;;;;;;;;;;;;20.54;35.32;100345.69;12216086;19;20027;-81
2022/05/06 17:30:37;;;;;;;4.75;1.45;;;;;;;20.49;35.20;100352.16;12224848;19;20338;-81
2022/05/06 17:34:38;;;;;;;5.38;1.60;;;;;;;20.42;35.66;100346.13;12188714;19;20076;-79
2022/05/06 17:38:41;;;;;;;4.00;1.45;;;;;;;20.26;35.81;100356.72;12216461;19;20438;-81
2022/05/06 17:42:42;;;;;;;2.70;1.20;;;;;;;20.40;35.46;100359.56;12215831;19;20036;-81
2022/05/06 17:46:46;;;;;;;6.22;1.80;;;;;;;20.37;35.69;100355.41;12204018;19;20074;-80
2022/05/06 17:50:47;;;;;;;2.13;1.27;;;;;;;20.14;36.45;100362.75;12212910;19;20092;-81
2022/05/06 17:54:49;;;;;;;4.30;1.25;;;;;;;20.19;36.86;100368.25;12216568;19;20111;-81
2022/05/06 17:58:52;;;;;;;5.60;1.42;;;;;;;20.18;37.49;100366.59;12189440;19;20015;-83
2022/05/06 18:02:54;;;;;;;4.95;1.67;;;;;;;19.92;37.60;100357.69;12212894;19;20003;-81
2022/05/06 18:06:55;;;;;;;3.00;1.33;;;;;;;19.69;38.44;100362.19;12191370;19;20014;-81
2022/05/06 18:10:57;;;;;;;8.40;2.17;;;;;;;19.42;38.97;100361.88;12215968;19;20037;-81
2022/05/06 18:14:59;;;;;;;2.33;1.38;;;;;;;19.20;39.41;100366.03;12210032;19;20066;-81
2022/05/06 18:19:01;;;;;;;3.58;1.60;;;;;;;19.02;39.70;100363.97;12196205;19;20006;-80
2022/05/06 18:23:03;;;;;;;2.25;1.30;;;;;;;18.80;40.38;100372.78;12215791;19;20498;-83
2022/05/06 18:27:06;;;;;;;3.80;1.67;;;;;;;18.57;41.18;100369.56;12208541;19;20077;-81
2022/05/06 18:31:08;;;;;;;2.85;1.23;;;;;;;18.34;42.31;100373.06;12183143;19;20015;-83
2022/05/06 18:35:10;;;;;;;5.70;1.65;;;;;;;18.07;43.56;100384.66;12218675;19;20078;-83
2022/05/06 18:39:13;;;;;;;1.77;1.20;;;;;;;17.77;44.19;100375.25;12212678;19;20031;-82
2022/05/06 18:43:15;;;;;;;4.55;1.48;;;;;;;17.50;44.83;100378.41;12188046;19;20031;-82
2022/05/06 18:47:18;;;;;;;6.70;1.60;;;;;;;17.24;45.82;100395.13;12208451;19;20015;-83
2022/05/06 18:51:23;;;;;;;3.78;1.55;;;;;;;17.00;46.03;100394.03;12207040;19;20010;-82
2022/05/06 18:55:25;;;;;;;5.55;1.55;;;;;;;16.78;46.59;100397.09;12189476;19;20018;-82
2022/05/06 18:59:27;;;;;;;8.20;3.83;;;;;;;16.58;47.25;100400.66;12201087;19;20027;-82
2022/05/06 19:03:30;;;;;;;3.90;1.73;;;;;;;16.37;47.88;100392.25;12210482;19;20480;-82
2022/05/06 19:07:33;;;;;;;2.95;1.45;;;;;;;16.18;48.13;100404.97;12189152;19;20007;-83
2022/05/06 19:11:39;;;;;;;3.08;1.40;;;;;;;15.99;49.33;100398.25;12205983;19;20296;-82
2022/05/06 19:15:40;;;;;;;6.95;1.60;;;;;;;15.80;49.65;100398.72;12205550;19;20015;-82
2022/05/06 19:19:43;;;;;;;2.70;1.45;;;;;;;15.68;50.01;100393.38;12195673;19;20014;-82
2022/05/06 19:28:04;;;;;;;7.05;1.67;;;;;;;15.40;51.25;100414.00;12177443;19;20040;-83
2022/05/06 19:32:07;;;;;;;4.60;1.63;;;;;;;15.30;52.08;100413.94;12215015;19;20003;-81
2022/05/06 19:36:09;;;;;;;;;;;;;;;15.17;52.43;100409.69;12205460;19;20038;-82
2022/05/06 19:40:13;;;;;;;2.50;1.20;;;;;;;15.10;51.68;100413.78;12185945;19;19910;-83
2022/05/06 19:44:16;;;;;;;2.38;1.45;;;;;;;15.03;52.38;100414.00;12200507;19;20006;-82
2022/05/06 19:48:18;;;;;;;2.08;1.13;;;;;;;14.98;52.26;100413.94;12212556;19;20505;-83